createdAt,value
2018-11-04T00:02:35.234Z,98.05
2018-11-04T00:12:35.250Z,98.02
2018-11-04T00:22:35.250Z,98.21
2018-11-04T00:32:35.243Z,98.16
2018-11-04T00:42:35.305Z,98.69
2018-11-04T00:52:35.254Z,98.38
2018-11-04T01:02:35.246Z,99.01
2018-11-04T01:12:35.204Z,98.77
2018-11-04T01:22:35.257Z,99.02
2018-11-04T01:32:35.186Z,99.14
2018-11-04T01:42:35.221Z,99.09
2018-11-04T01:52:35.276Z,99.03
2018-11-04T02:02:35.223Z,98.73
2018-11-04T02:12:35.262Z,99.01
2018-11-04T02:22:35.250Z,99.69
2018-11-04T02:32:35.312Z,99.41
2018-11-04T02:42:35.240Z,99.03
2018-11-04T02:52:35.244Z,99.03
2018-11-04T03:02:35.271Z,99.51
2018-11-04T03:12:35.370Z,99.58
2018-11-04T03:22:35.185Z,100.00
2018-11-04T03:32:35.320Z,99.74
2018-11-04T03:42:35.333Z,99.80
2018-11-04T03:52:36.187Z,99.47
2018-11-04T04:02:35.265Z,99.00
2018-11-04T04:12:35.191Z,99.36
2018-11-04T04:22:35.184Z,100.00
2018-11-04T04:32:35.163Z,99.73
2018-11-04T04:42:35.242Z,100.00
2018-11-04T04:52:35.221Z,99.96
2018-11-04T05:02:35.169Z,99.78
2018-11-04T05:12:35.234Z,99.82
2018-11-04T05:22:35.214Z,99.89
2018-11-04T05:32:35.136Z,100.00
2018-11-04T05:42:35.171Z,99.97
2018-11-04T05:52:35.186Z,100.00
2018-11-04T06:02:35.207Z,100.00
2018-11-04T06:12:35.148Z,100.00
2018-11-04T06:22:35.137Z,100.00
2018-11-04T06:32:35.159Z,100.00
2018-11-04T06:42:35.180Z,100.00
2018-11-04T06:52:35.205Z,100.00
2018-11-04T07:02:35.195Z,100.00
2018-11-04T07:12:35.146Z,100.00
2018-11-04T07:22:35.142Z,100.00
2018-11-04T07:32:35.243Z,100.00
2018-11-04T07:42:35.183Z,100.00
2018-11-04T07:52:35.665Z,100.00
2018-11-04T08:02:35.119Z,99.10
2018-11-04T08:12:35.188Z,93.60
2018-11-04T08:22:35.133Z,89.04
2018-11-04T08:32:35.213Z,88.06
2018-11-04T08:42:35.187Z,83.84
2018-11-04T08:52:35.375Z,80.17
2018-11-04T09:02:36.583Z,79.83
2018-11-04T09:12:42.628Z,73.62
2018-11-04T09:22:35.321Z,74.49
2018-11-04T09:32:39.308Z,67.67
2018-11-04T09:42:35.118Z,68.37
2018-11-04T09:52:35.285Z,65.33
2018-11-04T10:02:35.361Z,62.26
2018-11-04T10:12:35.134Z,60.35
2018-11-04T10:22:35.295Z,60.34
2018-11-04T10:32:35.246Z,58.82
2018-11-04T10:42:35.190Z,59.03
2018-11-04T10:52:35.201Z,57.89
2018-11-04T11:02:35.247Z,59.58
2018-11-04T11:12:35.291Z,58.54
2018-11-04T11:22:35.235Z,57.30
2018-11-04T11:32:35.193Z,57.07
2018-11-04T11:42:35.235Z,54.63
2018-11-04T11:52:35.235Z,54.35
2018-11-04T12:02:35.168Z,53.90
2018-11-04T12:12:35.190Z,53.35
2018-11-04T12:22:35.198Z,54.22
2018-11-04T12:32:35.254Z,55.71
2018-11-04T12:42:35.406Z,53.91
2018-11-04T12:52:35.207Z,54.40
2018-11-04T13:02:35.228Z,54.10
2018-11-04T13:12:35.198Z,52.20
2018-11-04T13:22:35.284Z,51.09
2018-11-04T13:32:36.141Z,52.16
2018-11-04T13:42:35.316Z,52.71
2018-11-04T13:52:35.209Z,51.20
2018-11-04T14:02:36.220Z,49.50
2018-11-04T14:12:35.294Z,49.34
2018-11-04T14:22:35.409Z,51.47
2018-11-04T14:32:35.221Z,52.87
2018-11-04T14:42:35.600Z,52.44
2018-11-04T14:52:35.262Z,53.03
2018-11-04T15:02:35.243Z,55.60
2018-11-04T15:12:35.318Z,56.37
2018-11-04T15:22:35.288Z,60.31
2018-11-04T15:32:35.292Z,64.44
2018-11-04T15:42:35.259Z,68.60
2018-11-04T15:52:35.482Z,72.96
2018-11-04T16:02:35.280Z,74.75
2018-11-04T16:12:35.578Z,77.55
2018-11-04T16:22:35.251Z,79.27
2018-11-04T16:32:35.269Z,81.12
2018-11-04T16:42:35.249Z,83.49
2018-11-04T16:52:35.405Z,84.81
2018-11-04T17:02:35.582Z,86.11
2018-11-04T17:12:35.292Z,88.23
2018-11-04T17:22:35.286Z,89.48
2018-11-04T17:32:35.211Z,89.64
2018-11-04T17:42:35.250Z,90.22
2018-11-04T17:52:35.280Z,90.23
2018-11-04T18:02:35.273Z,91.57
2018-11-04T18:12:35.201Z,91.76
2018-11-04T18:22:35.257Z,92.13
2018-11-04T18:32:35.220Z,92.77
2018-11-04T18:42:35.468Z,92.86
2018-11-04T18:52:35.346Z,93.89
2018-11-04T19:02:35.318Z,94.40
2018-11-04T19:12:35.284Z,94.87
2018-11-04T19:22:35.259Z,95.15
2018-11-04T19:32:35.204Z,95.39
2018-11-04T19:42:35.910Z,95.82
2018-11-04T19:52:35.598Z,95.87
2018-11-04T20:02:36.077Z,96.35
2018-11-04T20:12:35.257Z,96.58
2018-11-04T20:22:35.229Z,96.79
2018-11-04T20:32:35.252Z,97.02
2018-11-04T20:42:35.252Z,97.48
2018-11-04T20:52:35.167Z,97.57
2018-11-04T21:02:36.391Z,97.69
2018-11-04T21:12:35.253Z,97.99
2018-11-04T21:22:35.280Z,98.19
2018-11-04T21:32:35.240Z,98.38
2018-11-04T21:42:35.503Z,98.55
2018-11-04T21:52:35.279Z,98.66
2018-11-04T22:02:35.331Z,98.53
2018-11-04T22:12:35.223Z,98.91
2018-11-04T22:22:35.221Z,98.91
2018-11-04T22:32:35.241Z,99.06
2018-11-04T22:42:35.188Z,99.17
2018-11-04T22:52:35.168Z,99.32
2018-11-04T23:02:35.213Z,99.50
2018-11-04T23:12:36.192Z,99.63
2018-11-04T23:22:36.658Z,99.81
2018-11-04T23:32:42.501Z,99.50
2018-11-04T23:42:35.277Z,99.97
2018-11-04T23:52:35.278Z,100.00
